<?xml version="1.0" encoding="UTF-8" standalone="no" ?>
<gpx xmlns="http://www.topografix.com/GPX/1/1" xmlns:xsi="http://www.w3.org/2001/XMLSchema-instance" xsi:schemaLocation="http://www.topografix.com/GPX/1/1 http://www.topografix.com/GPX/1/1/gpx.xsd" version="1.1" creator="VisuGPX - https://www.visugpx.com">
  <metadata>
    <name>RPM Gr 1&amp;2 : ROQUEBRUNE - LES CABANELLES</name>
    <desc><![CDATA[Départ au Hameau de Roquebrune - St Roch - Olivier - Roquebrune Village - Rataou - GR51 - La Coupière - Col du Mont Gros - Rocagel - Cabanelles - Antennes - Golf - Arrivée au Pont des demoiselles.
]]></desc>
  </metadata>
  <trk>
    <name><![CDATA[Randonnée du 15/01/2020 à 08:56]]></name>
    <trkseg>
      <trkpt lat="43.76085" lon="7.47075">
        <ele>96</ele>
        <time>2020-01-15T08:57:30 01:00</time>
      </trkpt>
      <trkpt lat="43.76114" lon="7.46963">
        <ele>109</ele>
        <time>2020-01-15T08:57:35 01:00</time>
      </trkpt>
      <trkpt lat="43.76138" lon="7.4689">
        <ele>122</ele>
        <time>2020-01-15T08:57:40 01:00</time>
      </trkpt>
      <trkpt lat="43.76161" lon="7.46854">
        <ele>132</ele>
        <time>2020-01-15T08:57:45 01:00</time>
      </trkpt>
      <trkpt lat="43.76204" lon="7.46822">
        <ele>137</ele>
        <time>2020-01-15T08:57:50 01:00</time>
      </trkpt>
      <trkpt lat="43.76226" lon="7.46789">
        <ele>145</ele>
        <time>2020-01-15T08:57:55 01:00</time>
      </trkpt>
      <trkpt lat="43.76232" lon="7.46783">
        <ele>146</ele>
        <time>2020-01-15T08:58:00 01:00</time>
      </trkpt>
      <trkpt lat="43.76238" lon="7.46742">
        <ele>157</ele>
        <time>2020-01-15T08:58:05 01:00</time>
      </trkpt>
      <trkpt lat="43.76263" lon="7.46731">
        <ele>160</ele>
        <time>2020-01-15T08:58:10 01:00</time>
      </trkpt>
      <trkpt lat="43.76294" lon="7.46731">
        <ele>162</ele>
        <time>2020-01-15T08:58:15 01:00</time>
      </trkpt>
      <trkpt lat="43.76316" lon="7.46712">
        <ele>166</ele>
        <time>2020-01-15T08:58:20 01:00</time>
      </trkpt>
      <trkpt lat="43.76342" lon="7.46708">
        <ele>166</ele>
        <time>2020-01-15T08:58:25 01:00</time>
      </trkpt>
      <trkpt lat="43.76361" lon="7.46693">
        <ele>168</ele>
        <time>2020-01-15T08:58:30 01:00</time>
      </trkpt>
      <trkpt lat="43.76396" lon="7.4665">
        <ele>175</ele>
        <time>2020-01-15T08:58:35 01:00</time>
      </trkpt>
      <trkpt lat="43.76393" lon="7.46611">
        <ele>182</ele>
        <time>2020-01-15T08:58:40 01:00</time>
      </trkpt>
      <trkpt lat="43.76407" lon="7.46558">
        <ele>188</ele>
        <time>2020-01-15T08:58:45 01:00</time>
      </trkpt>
      <trkpt lat="43.76367" lon="7.46444">
        <ele>195</ele>
        <time>2020-01-15T08:58:50 01:00</time>
      </trkpt>
      <trkpt lat="43.76364" lon="7.46422">
        <ele>197</ele>
        <time>2020-01-15T08:58:55 01:00</time>
      </trkpt>
      <trkpt lat="43.76429" lon="7.46339">
        <ele>213</ele>
        <time>2020-01-15T08:59:00 01:00</time>
      </trkpt>
      <trkpt lat="43.76457" lon="7.46277">
        <ele>211</ele>
        <time>2020-01-15T08:59:05 01:00</time>
      </trkpt>
      <trkpt lat="43.76461" lon="7.46265">
        <ele>210</ele>
        <time>2020-01-15T08:59:10 01:00</time>
      </trkpt>
      <trkpt lat="43.76479" lon="7.4625">
        <ele>215</ele>
        <time>2020-01-15T08:59:15 01:00</time>
      </trkpt>
      <trkpt lat="43.76481" lon="7.4619">
        <ele>216</ele>
        <time>2020-01-15T08:59:20 01:00</time>
      </trkpt>
      <trkpt lat="43.76488" lon="7.46171">
        <ele>221</ele>
        <time>2020-01-15T08:59:25 01:00</time>
      </trkpt>
      <trkpt lat="43.76489" lon="7.46158">
        <ele>223</ele>
        <time>2020-01-15T08:59:30 01:00</time>
      </trkpt>
      <trkpt lat="43.76484" lon="7.46117">
        <ele>220</ele>
        <time>2020-01-15T08:59:35 01:00</time>
      </trkpt>
      <trkpt lat="43.76492" lon="7.46066">
        <ele>223</ele>
        <time>2020-01-15T08:59:40 01:00</time>
      </trkpt>
      <trkpt lat="43.76496" lon="7.46066">
        <ele>225</ele>
        <time>2020-01-15T08:59:45 01:00</time>
      </trkpt>
      <trkpt lat="43.76498" lon="7.46038">
        <ele>224</ele>
        <time>2020-01-15T08:59:50 01:00</time>
      </trkpt>
      <trkpt lat="43.76502" lon="7.4602">
        <ele>224</ele>
        <time>2020-01-15T08:59:55 01:00</time>
      </trkpt>
      <trkpt lat="43.76506" lon="7.45996">
        <ele>224</ele>
        <time>2020-01-15T09:00:00 01:00</time>
      </trkpt>
      <trkpt lat="43.7652" lon="7.45989">
        <ele>228</ele>
        <time>2020-01-15T09:00:05 01:00</time>
      </trkpt>
      <trkpt lat="43.76547" lon="7.45988">
        <ele>235</ele>
        <time>2020-01-15T09:00:10 01:00</time>
      </trkpt>
      <trkpt lat="43.76557" lon="7.45979">
        <ele>236</ele>
        <time>2020-01-15T09:00:15 01:00</time>
      </trkpt>
      <trkpt lat="43.76562" lon="7.45954">
        <ele>233</ele>
        <time>2020-01-15T09:00:20 01:00</time>
      </trkpt>
      <trkpt lat="43.76562" lon="7.45939">
        <ele>229</ele>
        <time>2020-01-15T09:00:25 01:00</time>
      </trkpt>
      <trkpt lat="43.76584" lon="7.45904">
        <ele>222</ele>
        <time>2020-01-15T09:00:30 01:00</time>
      </trkpt>
      <trkpt lat="43.76599" lon="7.45898">
        <ele>223</ele>
        <time>2020-01-15T09:00:35 01:00</time>
      </trkpt>
      <trkpt lat="43.76607" lon="7.45889">
        <ele>223</ele>
        <time>2020-01-15T09:00:40 01:00</time>
      </trkpt>
      <trkpt lat="43.76636" lon="7.45881">
        <ele>225</ele>
        <time>2020-01-15T09:00:45 01:00</time>
      </trkpt>
      <trkpt lat="43.76669" lon="7.45866">
        <ele>229</ele>
        <time>2020-01-15T09:00:50 01:00</time>
      </trkpt>
      <trkpt lat="43.76678" lon="7.45865">
        <ele>230</ele>
        <time>2020-01-15T09:00:55 01:00</time>
      </trkpt>
      <trkpt lat="43.76705" lon="7.45885">
        <ele>240</ele>
        <time>2020-01-15T09:01:00 01:00</time>
      </trkpt>
      <trkpt lat="43.76727" lon="7.45875">
        <ele>242</ele>
        <time>2020-01-15T09:01:05 01:00</time>
      </trkpt>
      <trkpt lat="43.76745" lon="7.4585">
        <ele>241</ele>
        <time>2020-01-15T09:01:10 01:00</time>
      </trkpt>
      <trkpt lat="43.76784" lon="7.45836">
        <ele>251</ele>
        <time>2020-01-15T09:01:15 01:00</time>
      </trkpt>
      <trkpt lat="43.76837" lon="7.45853">
        <ele>274</ele>
        <time>2020-01-15T09:01:20 01:00</time>
      </trkpt>
      <trkpt lat="43.76829" lon="7.45888">
        <ele>286</ele>
        <time>2020-01-15T09:01:25 01:00</time>
      </trkpt>
      <trkpt lat="43.76845" lon="7.45976">
        <ele>319</ele>
        <time>2020-01-15T09:01:30 01:00</time>
      </trkpt>
      <trkpt lat="43.76855" lon="7.46027">
        <ele>337</ele>
        <time>2020-01-15T09:01:35 01:00</time>
      </trkpt>
      <trkpt lat="43.76857" lon="7.461">
        <ele>355</ele>
        <time>2020-01-15T09:01:40 01:00</time>
      </trkpt>
      <trkpt lat="43.76866" lon="7.46137">
        <ele>363</ele>
        <time>2020-01-15T09:01:45 01:00</time>
      </trkpt>
      <trkpt lat="43.76992" lon="7.46186">
        <ele>406</ele>
        <time>2020-01-15T09:01:50 01:00</time>
      </trkpt>
      <trkpt lat="43.77077" lon="7.46156">
        <ele>424</ele>
        <time>2020-01-15T09:01:55 01:00</time>
      </trkpt>
      <trkpt lat="43.77151" lon="7.46152">
        <ele>439</ele>
        <time>2020-01-15T09:02:00 01:00</time>
      </trkpt>
      <trkpt lat="43.77173" lon="7.46124">
        <ele>447</ele>
        <time>2020-01-15T09:02:05 01:00</time>
      </trkpt>
      <trkpt lat="43.7723" lon="7.45967">
        <ele>434</ele>
        <time>2020-01-15T09:02:10 01:00</time>
      </trkpt>
      <trkpt lat="43.77264" lon="7.45883">
        <ele>439</ele>
        <time>2020-01-15T09:02:15 01:00</time>
      </trkpt>
      <trkpt lat="43.77254" lon="7.45707">
        <ele>440</ele>
        <time>2020-01-15T09:02:20 01:00</time>
      </trkpt>
      <trkpt lat="43.77413" lon="7.45476">
        <ele>450</ele>
        <time>2020-01-15T09:02:25 01:00</time>
      </trkpt>
      <trkpt lat="43.77435" lon="7.45458">
        <ele>457</ele>
        <time>2020-01-15T09:02:30 01:00</time>
      </trkpt>
      <trkpt lat="43.77491" lon="7.45358">
        <ele>463</ele>
        <time>2020-01-15T09:02:35 01:00</time>
      </trkpt>
      <trkpt lat="43.77528" lon="7.4531">
        <ele>462</ele>
        <time>2020-01-15T09:02:40 01:00</time>
      </trkpt>
      <trkpt lat="43.77557" lon="7.4527">
        <ele>470</ele>
        <time>2020-01-15T09:02:45 01:00</time>
      </trkpt>
      <trkpt lat="43.77562" lon="7.45177">
        <ele>468</ele>
        <time>2020-01-15T09:02:50 01:00</time>
      </trkpt>
      <trkpt lat="43.77582" lon="7.45122">
        <ele>465</ele>
        <time>2020-01-15T09:02:55 01:00</time>
      </trkpt>
      <trkpt lat="43.7757" lon="7.45042">
        <ele>457</ele>
        <time>2020-01-15T09:03:00 01:00</time>
      </trkpt>
      <trkpt lat="43.7755" lon="7.4498">
        <ele>451</ele>
        <time>2020-01-15T09:03:05 01:00</time>
      </trkpt>
      <trkpt lat="43.77543" lon="7.44684">
        <ele>466</ele>
        <time>2020-01-15T09:03:10 01:00</time>
      </trkpt>
      <trkpt lat="43.77533" lon="7.44643">
        <ele>466</ele>
        <time>2020-01-15T09:03:15 01:00</time>
      </trkpt>
      <trkpt lat="43.7743" lon="7.44626">
        <ele>465</ele>
        <time>2020-01-15T09:03:20 01:00</time>
      </trkpt>
      <trkpt lat="43.7733" lon="7.44555">
        <ele>470</ele>
        <time>2020-01-15T09:03:25 01:00</time>
      </trkpt>
      <trkpt lat="43.77297" lon="7.44506">
        <ele>471</ele>
        <time>2020-01-15T09:03:30 01:00</time>
      </trkpt>
      <trkpt lat="43.77295" lon="7.44459">
        <ele>480</ele>
        <time>2020-01-15T09:03:35 01:00</time>
      </trkpt>
      <trkpt lat="43.77274" lon="7.44416">
        <ele>479</ele>
        <time>2020-01-15T09:03:40 01:00</time>
      </trkpt>
      <trkpt lat="43.7723" lon="7.44411">
        <ele>472</ele>
        <time>2020-01-15T09:03:45 01:00</time>
      </trkpt>
      <trkpt lat="43.77218" lon="7.44358">
        <ele>497</ele>
        <time>2020-01-15T09:03:50 01:00</time>
      </trkpt>
      <trkpt lat="43.77173" lon="7.44349">
        <ele>506</ele>
        <time>2020-01-15T09:03:55 01:00</time>
      </trkpt>
      <trkpt lat="43.76945" lon="7.4425">
        <ele>534</ele>
        <time>2020-01-15T09:04:00 01:00</time>
      </trkpt>
      <trkpt lat="43.76876" lon="7.44334">
        <ele>541</ele>
        <time>2020-01-15T09:04:05 01:00</time>
      </trkpt>
      <trkpt lat="43.76902" lon="7.44413">
        <ele>546</ele>
        <time>2020-01-15T09:04:10 01:00</time>
      </trkpt>
      <trkpt lat="43.76885" lon="7.44448">
        <ele>548</ele>
        <time>2020-01-15T09:04:15 01:00</time>
      </trkpt>
      <trkpt lat="43.76879" lon="7.44413">
        <ele>554</ele>
        <time>2020-01-15T09:04:20 01:00</time>
      </trkpt>
      <trkpt lat="43.76877" lon="7.44404">
        <ele>545.8</ele>
      </trkpt>
      <trkpt lat="43.76857" lon="7.44395">
        <ele>550.5</ele>
      </trkpt>
      <trkpt lat="43.76853" lon="7.44397">
        <ele>551.6</ele>
      </trkpt>
      <trkpt lat="43.76847" lon="7.44398">
        <ele>553.1</ele>
      </trkpt>
      <trkpt lat="43.76841" lon="7.44401">
        <ele>554.9</ele>
      </trkpt>
      <trkpt lat="43.76839" lon="7.44409">
        <ele>557.7</ele>
      </trkpt>
      <trkpt lat="43.76836" lon="7.4441">
        <ele>558.9</ele>
      </trkpt>
      <trkpt lat="43.76829" lon="7.44402">
        <ele>570.8</ele>
      </trkpt>
      <trkpt lat="43.76828" lon="7.44398">
        <ele>572</ele>
      </trkpt>
      <trkpt lat="43.76826" lon="7.44399">
        <ele>572.1</ele>
      </trkpt>
      <trkpt lat="43.76827" lon="7.44415">
        <ele>567.3</ele>
      </trkpt>
      <trkpt lat="43.76812" lon="7.44383">
        <ele>576.6</ele>
      </trkpt>
      <trkpt lat="43.7681" lon="7.44392">
        <ele>576.7</ele>
      </trkpt>
      <trkpt lat="43.76812" lon="7.44422">
        <ele>566.9</ele>
      </trkpt>
      <trkpt lat="43.76808" lon="7.44432">
        <ele>567.2</ele>
      </trkpt>
      <trkpt lat="43.76806" lon="7.44432">
        <ele>567.6</ele>
      </trkpt>
      <trkpt lat="43.76807" lon="7.44423">
        <ele>568</ele>
      </trkpt>
      <trkpt lat="43.76806" lon="7.44413">
        <ele>576.8</ele>
      </trkpt>
      <trkpt lat="43.76789" lon="7.44384">
        <ele>582</ele>
      </trkpt>
      <trkpt lat="43.76771" lon="7.4436">
        <ele>585.3</ele>
      </trkpt>
      <trkpt lat="43.76767" lon="7.44358">
        <ele>586.2</ele>
      </trkpt>
      <trkpt lat="43.76765" lon="7.44361">
        <ele>586.5</ele>
      </trkpt>
      <trkpt lat="43.76758" lon="7.44354">
        <ele>588.2</ele>
      </trkpt>
      <trkpt lat="43.7674" lon="7.44321">
        <ele>608.6</ele>
      </trkpt>
      <trkpt lat="43.76737" lon="7.44373">
        <ele>613.4</ele>
      </trkpt>
      <trkpt lat="43.76737" lon="7.44391">
        <ele>613.3</ele>
      </trkpt>
      <trkpt lat="43.76736" lon="7.44398">
        <ele>612.8</ele>
      </trkpt>
      <trkpt lat="43.76734" lon="7.444">
        <ele>613</ele>
      </trkpt>
      <trkpt lat="43.76729" lon="7.44392">
        <ele>614.6</ele>
      </trkpt>
      <trkpt lat="43.76727" lon="7.44368">
        <ele>615</ele>
      </trkpt>
      <trkpt lat="43.76714" lon="7.44339">
        <ele>617.5</ele>
      </trkpt>
      <trkpt lat="43.76709" lon="7.44332">
        <ele>621.9</ele>
      </trkpt>
      <trkpt lat="43.76696" lon="7.44307">
        <ele>626.7</ele>
      </trkpt>
      <trkpt lat="43.76695" lon="7.44313">
        <ele>627.3</ele>
      </trkpt>
      <trkpt lat="43.76694" lon="7.44335">
        <ele>626.4</ele>
      </trkpt>
      <trkpt lat="43.76689" lon="7.44328">
        <ele>631</ele>
      </trkpt>
      <trkpt lat="43.76682" lon="7.44313">
        <ele>631.6</ele>
      </trkpt>
      <trkpt lat="43.76679" lon="7.443">
        <ele>630.7</ele>
      </trkpt>
      <trkpt lat="43.76672" lon="7.44282">
        <ele>632.6</ele>
      </trkpt>
      <trkpt lat="43.76649" lon="7.44234">
        <ele>654.2</ele>
      </trkpt>
      <trkpt lat="43.76632" lon="7.44158">
        <ele>646.1</ele>
      </trkpt>
      <trkpt lat="43.76631" lon="7.44143">
        <ele>645.1</ele>
      </trkpt>
      <trkpt lat="43.76645" lon="7.44134">
        <ele>645.2</ele>
      </trkpt>
      <trkpt lat="43.76654" lon="7.44131">
        <ele>645.5</ele>
      </trkpt>
      <trkpt lat="43.76654" lon="7.44124">
        <ele>645.3</ele>
      </trkpt>
      <trkpt lat="43.76687" lon="7.44108">
        <ele>648.5</ele>
      </trkpt>
      <trkpt lat="43.76725" lon="7.44075">
        <ele>656.9</ele>
      </trkpt>
      <trkpt lat="43.76744" lon="7.44062">
        <ele>657.8</ele>
      </trkpt>
      <trkpt lat="43.76747" lon="7.44048">
        <ele>658.5</ele>
      </trkpt>
      <trkpt lat="43.76746" lon="7.44043">
        <ele>658.8</ele>
      </trkpt>
      <trkpt lat="43.76733" lon="7.44038">
        <ele>669</ele>
        <time>2020-01-15T09:06:35 01:00</time>
      </trkpt>
      <trkpt lat="43.76697" lon="7.43952">
        <ele>669</ele>
        <time>2020-01-15T09:06:40 01:00</time>
      </trkpt>
      <trkpt lat="43.76691" lon="7.43896">
        <ele>676</ele>
        <time>2020-01-15T09:06:45 01:00</time>
      </trkpt>
      <trkpt lat="43.76736" lon="7.43841">
        <ele>676</ele>
        <time>2020-01-15T09:06:50 01:00</time>
      </trkpt>
      <trkpt lat="43.76738" lon="7.4383">
        <ele>674</ele>
        <time>2020-01-15T09:06:55 01:00</time>
      </trkpt>
      <trkpt lat="43.76714" lon="7.4381">
        <ele>669</ele>
        <time>2020-01-15T09:07:00 01:00</time>
      </trkpt>
      <trkpt lat="43.76731" lon="7.43673">
        <ele>670</ele>
        <time>2020-01-15T09:07:05 01:00</time>
      </trkpt>
      <trkpt lat="43.76747" lon="7.43667">
        <ele>674</ele>
        <time>2020-01-15T09:07:10 01:00</time>
      </trkpt>
      <trkpt lat="43.76738" lon="7.43637">
        <ele>678</ele>
        <time>2020-01-15T09:07:15 01:00</time>
      </trkpt>
      <trkpt lat="43.76671" lon="7.43525">
        <ele>694</ele>
        <time>2020-01-15T09:07:20 01:00</time>
      </trkpt>
      <trkpt lat="43.76563" lon="7.43471">
        <ele>707</ele>
        <time>2020-01-15T09:07:25 01:00</time>
      </trkpt>
      <trkpt lat="43.76504" lon="7.43456">
        <ele>706</ele>
        <time>2020-01-15T09:07:30 01:00</time>
      </trkpt>
      <trkpt lat="43.76483" lon="7.43405">
        <ele>714</ele>
        <time>2020-01-15T09:07:35 01:00</time>
      </trkpt>
      <trkpt lat="43.76473" lon="7.43317">
        <ele>720</ele>
        <time>2020-01-15T09:07:40 01:00</time>
      </trkpt>
      <trkpt lat="43.76493" lon="7.43193">
        <ele>732</ele>
        <time>2020-01-15T09:07:45 01:00</time>
      </trkpt>
      <trkpt lat="43.76501" lon="7.43098">
        <ele>739</ele>
        <time>2020-01-15T09:07:50 01:00</time>
      </trkpt>
      <trkpt lat="43.76501" lon="7.42916">
        <ele>749</ele>
        <time>2020-01-15T09:07:55 01:00</time>
      </trkpt>
      <trkpt lat="43.76462" lon="7.42886">
        <ele>752</ele>
        <time>2020-01-15T09:08:00 01:00</time>
      </trkpt>
      <trkpt lat="43.76439" lon="7.42901">
        <ele>749</ele>
        <time>2020-01-15T09:08:05 01:00</time>
      </trkpt>
      <trkpt lat="43.76459" lon="7.42864">
        <ele>760</ele>
        <time>2020-01-15T09:08:10 01:00</time>
      </trkpt>
      <trkpt lat="43.76497" lon="7.4286">
        <ele>766</ele>
        <time>2020-01-15T09:08:15 01:00</time>
      </trkpt>
      <trkpt lat="43.7653" lon="7.42853">
        <ele>772</ele>
        <time>2020-01-15T09:08:20 01:00</time>
      </trkpt>
      <trkpt lat="43.76567" lon="7.42808">
        <ele>787</ele>
        <time>2020-01-15T09:08:25 01:00</time>
      </trkpt>
      <trkpt lat="43.76603" lon="7.42817">
        <ele>793</ele>
        <time>2020-01-15T09:08:30 01:00</time>
      </trkpt>
      <trkpt lat="43.76677" lon="7.42914">
        <ele>805</ele>
        <time>2020-01-15T09:08:35 01:00</time>
      </trkpt>
      <trkpt lat="43.76708" lon="7.42956">
        <ele>808</ele>
        <time>2020-01-15T09:08:40 01:00</time>
      </trkpt>
      <trkpt lat="43.76745" lon="7.42984">
        <ele>815</ele>
        <time>2020-01-15T09:08:45 01:00</time>
      </trkpt>
      <trkpt lat="43.76758" lon="7.43006">
        <ele>815</ele>
        <time>2020-01-15T09:08:50 01:00</time>
      </trkpt>
      <trkpt lat="43.76795" lon="7.43044">
        <ele>816</ele>
        <time>2020-01-15T09:08:55 01:00</time>
      </trkpt>
      <trkpt lat="43.76829" lon="7.43145">
        <ele>818</ele>
        <time>2020-01-15T09:09:00 01:00</time>
      </trkpt>
      <trkpt lat="43.76851" lon="7.43197">
        <ele>821</ele>
        <time>2020-01-15T09:09:05 01:00</time>
      </trkpt>
      <trkpt lat="43.76876" lon="7.43223">
        <ele>823</ele>
        <time>2020-01-15T09:09:10 01:00</time>
      </trkpt>
      <trkpt lat="43.76914" lon="7.4324">
        <ele>834</ele>
        <time>2020-01-15T09:09:15 01:00</time>
      </trkpt>
      <trkpt lat="43.76958" lon="7.43313">
        <ele>844</ele>
        <time>2020-01-15T09:09:20 01:00</time>
      </trkpt>
      <trkpt lat="43.7699" lon="7.43308">
        <ele>853</ele>
        <time>2020-01-15T09:09:25 01:00</time>
      </trkpt>
      <trkpt lat="43.77055" lon="7.43358">
        <ele>852</ele>
        <time>2020-01-15T09:09:30 01:00</time>
      </trkpt>
      <trkpt lat="43.77117" lon="7.43362">
        <ele>855</ele>
        <time>2020-01-15T09:09:35 01:00</time>
      </trkpt>
      <trkpt lat="43.77221" lon="7.4333">
        <ele>868</ele>
        <time>2020-01-15T09:09:40 01:00</time>
      </trkpt>
      <trkpt lat="43.77261" lon="7.43317">
        <ele>873</ele>
        <time>2020-01-15T09:09:45 01:00</time>
      </trkpt>
      <trkpt lat="43.7735" lon="7.43248">
        <ele>882</ele>
        <time>2020-01-15T09:09:50 01:00</time>
      </trkpt>
      <trkpt lat="43.77393" lon="7.4324">
        <ele>875</ele>
        <time>2020-01-15T09:09:55 01:00</time>
      </trkpt>
      <trkpt lat="43.77466" lon="7.43193">
        <ele>886</ele>
        <time>2020-01-15T09:10:00 01:00</time>
      </trkpt>
      <trkpt lat="43.77556" lon="7.43225">
        <ele>885</ele>
        <time>2020-01-15T09:10:05 01:00</time>
      </trkpt>
      <trkpt lat="43.77653" lon="7.43227">
        <ele>884</ele>
        <time>2020-01-15T09:10:10 01:00</time>
      </trkpt>
      <trkpt lat="43.77667" lon="7.43208">
        <ele>889</ele>
        <time>2020-01-15T09:10:15 01:00</time>
      </trkpt>
      <trkpt lat="43.77751" lon="7.4315">
        <ele>894</ele>
        <time>2020-01-15T09:10:20 01:00</time>
      </trkpt>
      <trkpt lat="43.77801" lon="7.43105">
        <ele>899</ele>
        <time>2020-01-15T09:10:25 01:00</time>
      </trkpt>
      <trkpt lat="43.77845" lon="7.43057">
        <ele>903</ele>
        <time>2020-01-15T09:10:30 01:00</time>
      </trkpt>
      <trkpt lat="43.77866" lon="7.43006">
        <ele>912</ele>
        <time>2020-01-15T09:10:35 01:00</time>
      </trkpt>
      <trkpt lat="43.77921" lon="7.4292">
        <ele>911</ele>
        <time>2020-01-15T09:10:40 01:00</time>
      </trkpt>
      <trkpt lat="43.77959" lon="7.42851">
        <ele>913</ele>
        <time>2020-01-15T09:10:45 01:00</time>
      </trkpt>
      <trkpt lat="43.77996" lon="7.4268">
        <ele>933</ele>
        <time>2020-01-15T09:10:50 01:00</time>
      </trkpt>
      <trkpt lat="43.78031" lon="7.42641">
        <ele>927</ele>
        <time>2020-01-15T09:10:55 01:00</time>
      </trkpt>
      <trkpt lat="43.78042" lon="7.42609">
        <ele>927</ele>
        <time>2020-01-15T09:11:00 01:00</time>
      </trkpt>
      <trkpt lat="43.78055" lon="7.42441">
        <ele>939</ele>
        <time>2020-01-15T09:11:05 01:00</time>
      </trkpt>
      <trkpt lat="43.78113" lon="7.42392">
        <ele>940</ele>
        <time>2020-01-15T09:11:10 01:00</time>
      </trkpt>
      <trkpt lat="43.78149" lon="7.42351">
        <ele>948</ele>
        <time>2020-01-15T09:11:15 01:00</time>
      </trkpt>
      <trkpt lat="43.78162" lon="7.42345">
        <ele>947</ele>
        <time>2020-01-15T09:11:20 01:00</time>
      </trkpt>
      <trkpt lat="43.78237" lon="7.42268">
        <ele>956</ele>
        <time>2020-01-15T09:11:25 01:00</time>
      </trkpt>
      <trkpt lat="43.78329" lon="7.42216">
        <ele>966</ele>
        <time>2020-01-15T09:11:30 01:00</time>
      </trkpt>
      <trkpt lat="43.78372" lon="7.4221">
        <ele>963</ele>
        <time>2020-01-15T09:11:35 01:00</time>
      </trkpt>
      <trkpt lat="43.78395" lon="7.42186">
        <ele>963</ele>
        <time>2020-01-15T09:11:40 01:00</time>
      </trkpt>
      <trkpt lat="43.78402" lon="7.42178">
        <ele>962</ele>
        <time>2020-01-15T09:11:45 01:00</time>
      </trkpt>
      <trkpt lat="43.78437" lon="7.42092">
        <ele>972</ele>
        <time>2020-01-15T09:11:50 01:00</time>
      </trkpt>
      <trkpt lat="43.78549" lon="7.42042">
        <ele>983</ele>
        <time>2020-01-15T09:11:55 01:00</time>
      </trkpt>
      <trkpt lat="43.78653" lon="7.42133">
        <ele>996</ele>
        <time>2020-01-15T09:12:00 01:00</time>
      </trkpt>
      <trkpt lat="43.7869" lon="7.42154">
        <ele>997</ele>
        <time>2020-01-15T09:12:05 01:00</time>
      </trkpt>
      <trkpt lat="43.78711" lon="7.4215">
        <ele>997</ele>
        <time>2020-01-15T09:12:10 01:00</time>
      </trkpt>
      <trkpt lat="43.78781" lon="7.42117">
        <ele>996</ele>
        <time>2020-01-15T09:12:15 01:00</time>
      </trkpt>
      <trkpt lat="43.7884" lon="7.42111">
        <ele>1012</ele>
        <time>2020-01-15T09:12:20 01:00</time>
      </trkpt>
      <trkpt lat="43.78899" lon="7.4215">
        <ele>1023</ele>
        <time>2020-01-15T09:12:25 01:00</time>
      </trkpt>
      <trkpt lat="43.78935" lon="7.42165">
        <ele>1033</ele>
        <time>2020-01-15T09:12:30 01:00</time>
      </trkpt>
      <trkpt lat="43.79006" lon="7.42105">
        <ele>1043</ele>
        <time>2020-01-15T09:12:35 01:00</time>
      </trkpt>
      <trkpt lat="43.79017" lon="7.42045">
        <ele>1042</ele>
        <time>2020-01-15T09:12:40 01:00</time>
      </trkpt>
      <trkpt lat="43.79049" lon="7.42004">
        <ele>1047</ele>
        <time>2020-01-15T09:12:45 01:00</time>
      </trkpt>
      <trkpt lat="43.79091" lon="7.41978">
        <ele>1052</ele>
        <time>2020-01-15T09:12:50 01:00</time>
      </trkpt>
      <trkpt lat="43.79122" lon="7.41927">
        <ele>1050</ele>
        <time>2020-01-15T09:12:55 01:00</time>
      </trkpt>
      <trkpt lat="43.79111" lon="7.41896">
        <ele>1050</ele>
        <time>2020-01-15T09:13:00 01:00</time>
      </trkpt>
      <trkpt lat="43.7911" lon="7.41804">
        <ele>1057</ele>
        <time>2020-01-15T09:13:05 01:00</time>
      </trkpt>
      <trkpt lat="43.79014" lon="7.41862">
        <ele>1059</ele>
        <time>2020-01-15T09:13:10 01:00</time>
      </trkpt>
      <trkpt lat="43.78935" lon="7.41877">
        <ele>1063</ele>
        <time>2020-01-15T09:13:15 01:00</time>
      </trkpt>
      <trkpt lat="43.78907" lon="7.41879">
        <ele>1066</ele>
        <time>2020-01-15T09:13:20 01:00</time>
      </trkpt>
      <trkpt lat="43.78893" lon="7.41854">
        <ele>1069</ele>
        <time>2020-01-15T09:13:25 01:00</time>
      </trkpt>
      <trkpt lat="43.78883" lon="7.41815">
        <ele>1064</ele>
        <time>2020-01-15T09:13:30 01:00</time>
      </trkpt>
      <trkpt lat="43.78852" lon="7.41815">
        <ele>1061</ele>
        <time>2020-01-15T09:13:35 01:00</time>
      </trkpt>
      <trkpt lat="43.78795" lon="7.41787">
        <ele>1048</ele>
        <time>2020-01-15T09:13:40 01:00</time>
      </trkpt>
      <trkpt lat="43.78739" lon="7.41781">
        <ele>1035</ele>
        <time>2020-01-15T09:13:45 01:00</time>
      </trkpt>
      <trkpt lat="43.78662" lon="7.41804">
        <ele>1027</ele>
        <time>2020-01-15T09:13:50 01:00</time>
      </trkpt>
      <trkpt lat="43.78588" lon="7.41813">
        <ele>1016</ele>
        <time>2020-01-15T09:13:55 01:00</time>
      </trkpt>
      <trkpt lat="43.78543" lon="7.418">
        <ele>1005</ele>
        <time>2020-01-15T09:14:00 01:00</time>
      </trkpt>
      <trkpt lat="43.78495" lon="7.41778">
        <ele>994</ele>
        <time>2020-01-15T09:14:05 01:00</time>
      </trkpt>
      <trkpt lat="43.78368" lon="7.41817">
        <ele>991</ele>
        <time>2020-01-15T09:14:10 01:00</time>
      </trkpt>
      <trkpt lat="43.78267" lon="7.41826">
        <ele>981</ele>
        <time>2020-01-15T09:14:15 01:00</time>
      </trkpt>
      <trkpt lat="43.78191" lon="7.41851">
        <ele>971</ele>
        <time>2020-01-15T09:14:20 01:00</time>
      </trkpt>
      <trkpt lat="43.78141" lon="7.41869">
        <ele>959</ele>
        <time>2020-01-15T09:14:25 01:00</time>
      </trkpt>
      <trkpt lat="43.78109" lon="7.41858">
        <ele>949</ele>
        <time>2020-01-15T09:14:30 01:00</time>
      </trkpt>
      <trkpt lat="43.78067" lon="7.41862">
        <ele>940</ele>
        <time>2020-01-15T09:14:35 01:00</time>
      </trkpt>
      <trkpt lat="43.77994" lon="7.41841">
        <ele>925</ele>
        <time>2020-01-15T09:14:40 01:00</time>
      </trkpt>
      <trkpt lat="43.77959" lon="7.41858">
        <ele>928</ele>
        <time>2020-01-15T09:14:45 01:00</time>
      </trkpt>
      <trkpt lat="43.77948" lon="7.41793">
        <ele>917</ele>
        <time>2020-01-15T09:14:50 01:00</time>
      </trkpt>
      <trkpt lat="43.77909" lon="7.41785">
        <ele>913</ele>
        <time>2020-01-15T09:14:55 01:00</time>
      </trkpt>
      <trkpt lat="43.77856" lon="7.41811">
        <ele>914</ele>
        <time>2020-01-15T09:15:00 01:00</time>
      </trkpt>
      <trkpt lat="43.7778" lon="7.41787">
        <ele>911</ele>
        <time>2020-01-15T09:15:05 01:00</time>
      </trkpt>
      <trkpt lat="43.77732" lon="7.41787">
        <ele>906</ele>
        <time>2020-01-15T09:15:10 01:00</time>
      </trkpt>
      <trkpt lat="43.77701" lon="7.41761">
        <ele>900</ele>
        <time>2020-01-15T09:15:15 01:00</time>
      </trkpt>
      <trkpt lat="43.77664" lon="7.41753">
        <ele>900</ele>
        <time>2020-01-15T09:15:20 01:00</time>
      </trkpt>
      <trkpt lat="43.77629" lon="7.41718">
        <ele>891</ele>
        <time>2020-01-15T09:15:25 01:00</time>
      </trkpt>
      <trkpt lat="43.77534" lon="7.41626">
        <ele>882</ele>
        <time>2020-01-15T09:15:30 01:00</time>
      </trkpt>
      <trkpt lat="43.77537" lon="7.41581">
        <ele>871</ele>
        <time>2020-01-15T09:15:35 01:00</time>
      </trkpt>
      <trkpt lat="43.77531" lon="7.4156">
        <ele>868</ele>
        <time>2020-01-15T09:15:40 01:00</time>
      </trkpt>
      <trkpt lat="43.77453" lon="7.41508">
        <ele>858</ele>
        <time>2020-01-15T09:15:45 01:00</time>
      </trkpt>
      <trkpt lat="43.77429" lon="7.41482">
        <ele>854</ele>
        <time>2020-01-15T09:15:50 01:00</time>
      </trkpt>
      <trkpt lat="43.77376" lon="7.41429">
        <ele>849</ele>
        <time>2020-01-15T09:15:55 01:00</time>
      </trkpt>
      <trkpt lat="43.77331" lon="7.41384">
        <ele>849</ele>
        <time>2020-01-15T09:16:00 01:00</time>
      </trkpt>
      <trkpt lat="43.77312" lon="7.4133">
        <ele>849</ele>
        <time>2020-01-15T09:16:05 01:00</time>
      </trkpt>
      <trkpt lat="43.77312" lon="7.41225">
        <ele>851</ele>
        <time>2020-01-15T09:16:10 01:00</time>
      </trkpt>
      <trkpt lat="43.77302" lon="7.41163">
        <ele>858</ele>
        <time>2020-01-15T09:16:15 01:00</time>
      </trkpt>
      <trkpt lat="43.77294" lon="7.41107">
        <ele>862</ele>
        <time>2020-01-15T09:16:20 01:00</time>
      </trkpt>
      <trkpt lat="43.77244" lon="7.41098">
        <ele>867</ele>
        <time>2020-01-15T09:16:25 01:00</time>
      </trkpt>
      <trkpt lat="43.77209" lon="7.41137">
        <ele>861</ele>
        <time>2020-01-15T09:16:30 01:00</time>
      </trkpt>
      <trkpt lat="43.77168" lon="7.41242">
        <ele>867</ele>
        <time>2020-01-15T09:16:35 01:00</time>
      </trkpt>
      <trkpt lat="43.7701" lon="7.41341">
        <ele>852</ele>
        <time>2020-01-15T09:16:40 01:00</time>
      </trkpt>
      <trkpt lat="43.76986" lon="7.4133">
        <ele>847</ele>
        <time>2020-01-15T09:16:45 01:00</time>
      </trkpt>
      <trkpt lat="43.7688" lon="7.41321">
        <ele>842</ele>
        <time>2020-01-15T09:16:50 01:00</time>
      </trkpt>
      <trkpt lat="43.7681" lon="7.41257">
        <ele>839</ele>
        <time>2020-01-15T09:16:55 01:00</time>
      </trkpt>
      <trkpt lat="43.76741" lon="7.41272">
        <ele>836</ele>
        <time>2020-01-15T09:17:00 01:00</time>
      </trkpt>
      <trkpt lat="43.76705" lon="7.4133">
        <ele>839</ele>
        <time>2020-01-15T09:17:05 01:00</time>
      </trkpt>
      <trkpt lat="43.76677" lon="7.41339">
        <ele>838</ele>
        <time>2020-01-15T09:17:10 01:00</time>
      </trkpt>
      <trkpt lat="43.76648" lon="7.41364">
        <ele>844</ele>
        <time>2020-01-15T09:17:15 01:00</time>
      </trkpt>
      <trkpt lat="43.76615" lon="7.41321">
        <ele>837</ele>
        <time>2020-01-15T09:17:20 01:00</time>
      </trkpt>
      <trkpt lat="43.76487" lon="7.41317">
        <ele>825</ele>
        <time>2020-01-15T09:17:25 01:00</time>
      </trkpt>
      <trkpt lat="43.76437" lon="7.41298">
        <ele>821</ele>
        <time>2020-01-15T09:17:30 01:00</time>
      </trkpt>
      <trkpt lat="43.76307" lon="7.41347">
        <ele>814</ele>
        <time>2020-01-15T09:17:35 01:00</time>
      </trkpt>
      <trkpt lat="43.76214" lon="7.41433">
        <ele>807</ele>
        <time>2020-01-15T09:17:40 01:00</time>
      </trkpt>
      <trkpt lat="43.76212" lon="7.41555">
        <ele>801</ele>
        <time>2020-01-15T09:17:45 01:00</time>
      </trkpt>
      <trkpt lat="43.76259" lon="7.41596">
        <ele>799</ele>
        <time>2020-01-15T09:17:50 01:00</time>
      </trkpt>
      <trkpt lat="43.7627" lon="7.41633">
        <ele>798</ele>
        <time>2020-01-15T09:17:55 01:00</time>
      </trkpt>
      <trkpt lat="43.76245" lon="7.41753">
        <ele>791</ele>
        <time>2020-01-15T09:18:00 01:00</time>
      </trkpt>
      <trkpt lat="43.76122" lon="7.41937">
        <ele>774</ele>
        <time>2020-01-15T09:18:05 01:00</time>
      </trkpt>
    </trkseg>
  </trk>
</gpx>